Time;durP1;ratioP1;P1;durP2;ratioP2;P2;SDS_P1;SDS_P2;PMS_P1;PMS_P2;Temp;Humidity;BMP_temperature;BMP_pressure;BME280_temperature;BME280_humidity;BME280_pressure;Samples;Min_cycle;Max_cycle;Signal;HPM_P1;HPM_P2
2023/02/17 00:02:14;;;;;;;;;;;;;;;;;;5060152;28;20222;-83
2023/02/17 00:04:39;;;;;;;;;;;;;;;;;;5048567;28;19944;-84
2023/02/17 00:07:05;;;;;;;;;;;;;;;;;;5061513;28;20276;-84
2023/02/17 00:09:30;;;;;;;;;;;;;;;;;;5049731;28;19920;-83
2023/02/17 00:11:55;;;;;;;;;;;;;;;;;;5051676;28;19986;-84
2023/02/17 00:14:20;;;;;;;;;;;;;;;;;;5066514;28;20274;-81
2023/02/17 00:16:45;;;;;;;;;;;;;;;;;;5060378;28;19917;-81
2023/02/17 00:19:23;;;;;;;;;;;;;;;;;;5063127;28;20009;-81
2023/02/17 00:21:48;;;;;;;;;;;;;;;;;;5051259;28;19925;-80
2023/02/17 00:24:13;;;;;;;;;;;;;;;;;;5053065;28;19917;-78
2023/02/17 00:26:38;;;;;;;;;;;;;;;;;;5063343;28;19912;-80
2023/02/17 00:29:03;;;;;;;;;;;;;;;;;;5053108;28;20371;-83
2023/02/17 00:31:28;;;;;;;;;;;;;;;;;;5067282;28;19917;-82
2023/02/17 00:33:54;;;;;;;;;;;;;;;;;;5061322;28;19912;-80
2023/02/17 00:36:19;;;;;;;;;;;;;;;;;;5063939;28;19917;-80
2023/02/17 00:38:45;;;;;;;;;;;;;;;;;;5061560;28;19919;-80
2023/02/17 00:41:10;;;;;;;;;;;;;;;;;;5055467;28;19916;-78
2023/02/17 00:43:35;;;;;;;;;;;;;;;;;;5044162;28;19935;-79
2023/02/17 00:46:02;;;;;;;;;;;;;;;;;;5049147;28;19908;-79
2023/02/17 00:48:27;;;;;;;;;;;;;;;;;;5064929;28;19927;-79
2023/02/17 00:50:53;;;;;;;;;;;;;;;;;;5065991;28;19917;-83
2023/02/17 00:53:18;;;;;;;;;;;;;;;;;;5051498;28;19909;-81
2023/02/17 00:55:43;;;;;;;;;;;;;;;;;;5056689;28;19960;-82
2023/02/17 00:58:08;;;;;;;;;;;;;;;;;;5065050;28;20279;-82
2023/02/17 01:00:33;;;;;;;;;;;;;;;;;;5056438;28;20015;-80
2023/02/17 01:02:58;;;;;;;;;;;;;;;;;;5063948;28;19920;-80
2023/02/17 01:05:23;;;;;;;;;;;;;;;;;;5060872;28;20295;-79
2023/02/17 01:07:49;;;;;;;;;;;;;;;;;;5061712;28;19912;-79
2023/02/17 01:10:14;;;;;;;;;;;;;;;;;;5052276;28;19920;-80
2023/02/17 01:12:39;;;;;;;;;;;;;;;;;;5046567;28;19913;-81
2023/02/17 01:15:04;;;;;;;;;;;;;;;;;;5061421;28;19914;-83
2023/02/17 01:17:29;;;;;;;;;;;;;;;;;;5062332;28;19923;-83
2023/02/17 01:19:54;;;;;;;;;;;;;;;;;;5062838;28;19928;-81
2023/02/17 01:22:19;;;;;;;;;;;;;;;;;;5065508;28;19917;-80
2023/02/17 01:24:44;;;;;;;;;;;;;;;;;;5049766;28;20007;-82
2023/02/17 01:27:10;;;;;;;;;;;;;;;;;;5053358;28;19974;-84
2023/02/17 01:29:35;;;;;;;;;;;;;;;;;;5068320;28;20337;-84
2023/02/17 01:32:00;;;;;;;;;;;;;;;;;;5067249;28;19952;-82
2023/02/17 01:34:25;;;;;;;;;;;;;;;;;;5049562;28;19923;-83
2023/02/17 01:36:50;;;;;;;;;;;;;;;;;;5066956;28;19919;-84
2023/02/17 01:39:15;;;;;;;;;;;;;;;;;;5068094;28;20367;-87
2023/02/17 01:41:41;;;;;;;;;;;;;;;;;;5067033;28;20329;-86
2023/02/17 01:44:06;;;;;;;;;;;;;;;;;;5065071;28;19943;-85
2023/02/17 01:46:31;;;;;;;;;;;;;;;;;;5065103;28;19913;-83
2023/02/17 01:48:56;;;;;;;;;;;;;;;;;;5046714;28;19913;-84
2023/02/17 01:51:21;;;;;;;;;;;;;;;;;;5051941;28;20378;-84
2023/02/17 01:53:46;;;;;;;;;;;;;;;;;;5052089;28;19913;-84
2023/02/17 01:56:12;;;;;;;;;;;;;;;;;;5050519;28;19963;-83
2023/02/17 01:58:37;;;;;;;;;;;;;;;;;;5048891;28;19932;-82
2023/02/17 02:01:02;;;;;;;;;;;;;;;;;;5040988;28;20290;-83
2023/02/17 02:03:27;;;;;;;;;;;;;;;;;;5062156;28;19936;-84
2023/02/17 02:05:52;;;;;;;;;;;;;;;;;;5038791;28;19920;-84
2023/02/17 02:08:18;;;;;;;;;;;;;;;;;;5058525;28;19956;-83
2023/02/17 02:10:43;;;;;;;;;;;;;;;;;;5040677;28;19943;-83
2023/02/17 02:13:08;;;;;;;;;;;;;;;;;;5033867;28;20287;-83
2023/02/17 02:15:33;;;;;;;;;;;;;;;;;;5040571;28;21638;-83
2023/02/17 02:17:58;;;;;;;;;;;;;;;;;;5051184;28;19909;-83
2023/02/17 02:20:23;;;;;;;;;;;;;;;;;;5060983;28;19935;-87
2023/02/17 02:22:48;;;;;;;;;;;;;;;;;;5060657;28;19920;-86
2023/02/17 02:25:14;;;;;;;;;;;;;;;;;;5065460;28;20379;-81
2023/02/17 02:27:39;;;;;;;;;;;;;;;;;;5051465;28;19962;-82
2023/02/17 02:30:04;;;;;;;;;;;;;;;;;;5060579;28;20098;-82
2023/02/17 02:32:32;;;;;;;;;;;;;;;;;;5064836;28;19913;-82
2023/02/17 02:34:57;;;;;;;;;;;;;;;;;;5054021;28;19920;-82
2023/02/17 02:37:22;;;;;;;;;;;;;;;;;;5048760;28;19913;-80
2023/02/17 02:39:47;;;;;;;;;;;;;;;;;;5051334;28;20371;-81
2023/02/17 02:42:12;;;;;;;;;;;;;;;;;;5062696;28;19963;-80
2023/02/17 02:44:38;;;;;;;;;;;;;;;;;;5066955;28;19939;-81
2023/02/17 02:47:03;;;;;;;;;;;;;;;;;;5062128;28;19920;-81
2023/02/17 02:49:28;;;;;;;;;;;;;;;;;;5062342;28;20388;-78
2023/02/17 02:51:53;;;;;;;;;;;;;;;;;;5041248;28;19913;-79
2023/02/17 02:54:18;;;;;;;;;;;;;;;;;;5036902;28;19927;-82
2023/02/17 02:56:43;;;;;;;;;;;;;;;;;;5050571;28;19920;-82
2023/02/17 02:59:08;;;;;;;;;;;;;;;;;;5064668;28;19923;-83
2023/02/17 03:01:34;;;;;;;;;;;;;;;;;;5065931;28;19925;-82
2023/02/17 03:03:59;;;;;;;;;;;;;;;;;;5051991;28;20363;-79
2023/02/17 03:06:24;;;;;;;;;;;;;;;;;;5061835;28;19923;-82
2023/02/17 03:08:49;;;;;;;;;;;;;;;;;;5064048;28;19995;-82
2023/02/17 03:11:14;;;;;;;;;;;;;;;;;;5063108;28;19956;-82
2023/02/17 03:13:39;;;;;;;;;;;;;;;;;;5051030;28;19982;-82
2023/02/17 03:16:05;;;;;;;;;;;;;;;;;;5046080;28;19914;-82
2023/02/17 03:18:30;;;;;;;;;;;;;;;;;;5049860;28;19931;-81
2023/02/17 03:20:59;;;;;;;;;;;;;;;;;;5049101;28;20009;-84
2023/02/17 03:23:24;;;;;;;;;;;;;;;;;;5066593;28;20416;-82
2023/02/17 03:25:49;;;;;;;;;;;;;;;;;;5065558;28;20011;-80
2023/02/17 03:28:14;;;;;;;;;;;;;;;;;;5060479;28;19920;-84
2023/02/17 03:30:40;;;;;;;;;;;;;;;;;;5052552;28;19921;-80
2023/02/17 03:33:05;;;;;;;;;;;;;;;;;;5060256;28;19913;-80
2023/02/17 03:35:30;;;;;;;;;;;;;;;;;;5066745;28;19956;-82
2023/02/17 03:37:55;;;;;;;;;;;;;;;;;;5063274;28;19913;-83
2023/02/17 03:40:20;;;;;;;;;;;;;;;;;;5066358;28;19908;-82
2023/02/17 03:42:45;;;;;;;;;;;;;;;;;;5047923;28;20355;-82
2023/02/17 03:45:10;;;;;;;;;;;;;;;;;;5062706;28;20371;-81
2023/02/17 03:47:36;;;;;;;;;;;;;;;;;;5063610;28;19917;-81
2023/02/17 03:50:01;;;;;;;;;;;;;;;;;;5066076;28;20290;-79
2023/02/17 03:52:26;;;;;;;;;;;;;;;;;;5062326;28;19935;-79
2023/02/17 03:54:52;;;;;;;;;;;;;;;;;;5051579;28;20007;-79
2023/02/17 03:57:17;;;;;;;;;;;;;;;;;;5058735;28;20353;-79
2023/02/17 03:59:42;;;;;;;;;;;;;;;;;;5061003;28;19913;-78
2023/02/17 04:02:07;;;;;;;;;;;;;;;;;;5065928;28;19927;-79
2023/02/17 04:04:32;;;;;;;;;;;;;;;;;;5054994;28;19920;-80
2023/02/17 04:06:57;;;;;;;;;;;;;;;;;;5061407;28;19917;-81
2023/02/17 04:09:22;;;;;;;;;;;;;;;;;;5051290;28;19920;-80
2023/02/17 04:11:47;;;;;;;;;;;;;;;;;;5049443;28;19923;-79
2023/02/17 04:14:23;;;;;;;;;;;;;;;;;;5054567;28;19919;-86
2023/02/17 04:16:48;;;;;;;;;;;;;;;;;;5052157;28;19916;-81
2023/02/17 04:19:13;;;;;;;;;;;;;;;;;;5070558;28;19920;-80
2023/02/17 04:21:38;;;;;;;;;;;;;;;;;;5051483;28;20358;-80
2023/02/17 04:24:03;;;;;;;;;;;;;;;;;;5061505;28;19976;-80
2023/02/17 04:26:28;;;;;;;;;;;;;;;;;;5039249;28;19915;-80
2023/02/17 04:28:53;;;;;;;;;;;;;;;;;;5070382;28;19931;-79
2023/02/17 04:31:19;;;;;;;;;;;;;;;;;;5065111;28;19920;-80
2023/02/17 04:33:44;;;;;;;;;;;;;;;;;;5054156;28;19912;-80
2023/02/17 04:36:10;;;;;;;;;;;;;;;;;;5067101;28;19927;-80
2023/02/17 04:38:35;;;;;;;;;;;;;;;;;;5066682;28;19920;-80
2023/02/17 04:41:00;;;;;;;;;;;;;;;;;;5052439;28;20291;-80
2023/02/17 04:43:25;;;;;;;;;;;;;;;;;;5036361;28;19917;-79
2023/02/17 04:45:50;;;;;;;;;;;;;;;;;;5057901;28;20004;-79
2023/02/17 04:48:15;;;;;;;;;;;;;;;;;;5051692;28;19913;-79
2023/02/17 04:50:41;;;;;;;;;;;;;;;;;;5037078;28;19928;-79
2023/02/17 04:53:07;;;;;;;;;;;;;;;;;;5052234;28;20133;-78
2023/02/17 04:55:32;;;;;;;;;;;;;;;;;;5053044;28;20004;-78
2023/02/17 04:57:57;;;;;;;;;;;;;;;;;;5050549;28;19940;-79
2023/02/17 05:00:22;;;;;;;;;;;;;;;;;;5042798;28;19919;-79
2023/02/17 05:02:47;;;;;;;;;;;;;;;;;;5050889;28;19913;-79
2023/02/17 05:05:14;;;;;;;;;;;;;;;;;;5054049;28;19925;-79
2023/02/17 05:07:39;;;;;;;;;;;;;;;;;;5051265;28;19952;-79
2023/02/17 05:10:04;;;;;;;;;;;;;;;;;;5052282;28;20353;-79
2023/02/17 05:12:29;;;;;;;;;;;;;;;;;;5052592;28;19955;-79
2023/02/17 05:14:54;;;;;;;;;;;;;;;;;;5051267;28;19919;-79
2023/02/17 05:17:19;;;;;;;;;;;;;;;;;;5048862;28;19913;-79
2023/02/17 05:19:45;;;;;;;;;;;;;;;;;;5051331;28;19913;-80
2023/02/17 05:22:10;;;;;;;;;;;;;;;;;;5061654;28;19921;-80
2023/02/17 05:24:35;;;;;;;;;;;;;;;;;;5044241;28;19920;-81
2023/02/17 05:27:00;;;;;;;;;;;;;;;;;;5068146;28;19912;-79
2023/02/17 05:29:25;;;;;;;;;;;;;;;;;;5067430;28;19909;-79
2023/02/17 05:31:50;;;;;;;;;;;;;;;;;;5065695;28;19963;-81
2023/02/17 05:34:15;;;;;;;;;;;;;;;;;;5051647;28;20363;-79
2023/02/17 05:36:40;;;;;;;;;;;;;;;;;;5051606;28;20378;-80
2023/02/17 05:39:07;;;;;;;;;;;;;;;;;;5050947;28;19960;-81
2023/02/17 05:41:32;;;;;;;;;;;;;;;;;;5046249;28;20442;-80
2023/02/17 05:43:58;;;;;;;;;;;;;;;;;;5052430;28;20363;-80
2023/02/17 05:46:23;;;;;;;;;;;;;;;;;;5051018;28;19935;-79
2023/02/17 05:48:48;;;;;;;;;;;;;;;;;;5049185;28;19974;-79
2023/02/17 05:51:16;;;;;;;;;;;;;;;;;;5064446;28;19909;-78
2023/02/17 05:53:42;;;;;;;;;;;;;;;;;;5047033;28;20123;-81
2023/02/17 05:56:08;;;;;;;;;;;;;;;;;;5051595;28;19913;-79
2023/02/17 05:58:33;;;;;;;;;;;;;;;;;;5054374;28;20098;-80
2023/02/17 06:01:01;;;;;;;;;;;;;;;;;;5058953;28;19963;-80
2023/02/17 06:03:26;;;;;;;;;;;;;;;;;;5050417;28;19936;-77
2023/02/17 06:05:51;;;;;;;;;;;;;;;;;;5058533;28;19924;-79
2023/02/17 06:08:20;;;;;;;;;;;;;;;;;;5059352;28;20266;-80
2023/02/17 06:10:45;;;;;;;;;;;;;;;;;;5055435;28;19913;-78
2023/02/17 06:13:11;;;;;;;;;;;;;;;;;;5050953;28;19909;-77
2023/02/17 06:15:45;;;;;;;;;;;;;;;;;;5047621;28;19935;-82
2023/02/17 06:18:10;;;;;;;;;;;;;;;;;;5061392;28;20382;-83
2023/02/17 06:20:36;;;;;;;;;;;;;;;;;;5059115;28;19916;-78
2023/02/17 06:28:26;;;;;;;;;;;;;;;;;;5030163;28;19975;-80
2023/02/17 06:30:52;;;;;;;;;;;;;;;;;;5046339;28;19917;-78
2023/02/17 06:33:17;;;;;;;;;;;;;;;;;;5043905;28;20008;-78
2023/02/17 06:35:43;;;;;;;;;;;;;;;;;;5022136;28;19917;-79
2023/02/17 06:38:08;;;;;;;;;;;;;;;;;;5042019;28;20012;-79
2023/02/17 06:40:33;;;;;;;;;;;;;;;;;;5024221;28;20032;-79
2023/02/17 06:42:58;;;;;;;;;;;;;;;;;;5029615;28;19987;-79
2023/02/17 06:45:25;;;;;;;;;;;;;;;;;;5045655;28;19921;-78
2023/02/17 06:47:50;;;;;;;;;;;;;;;;;;5024819;28;20402;-77
2023/02/17 06:50:15;;;;;;;;;;;;;;;;;;5025223;28;19917;-78
2023/02/17 06:52:40;;;;;;;;;;;;;;;;;;5044623;28;19940;-78
2023/02/17 06:55:06;;;;;;;;;;;;;;;;;;5046894;28;19936;-78
2023/02/17 06:57:31;;;;;;;;;;;;;;;;;;5019932;28;20012;-77
2023/02/17 06:59:56;;;;;;;;;;;;;;;;;;5027571;28;19936;-77
2023/02/17 07:02:21;;;;;;;;;;;;;;;;;;5029505;28;19924;-76
2023/02/17 07:04:46;;;;;;;;;;;;;;;;;;5027117;28;19913;-77
2023/02/17 07:07:11;;;;;;;;;;;;;;;;;;5031309;28;20367;-77
2023/02/17 07:09:37;;;;;;;;;;;;;;;;;;5027596;28;20327;-78
2023/02/17 07:12:02;;;;;;;;;;;;;;;;;;5025935;28;19943;-78
2023/02/17 07:14:27;;;;;;;;;;;;;;;;;;5024184;28;20010;-76
2023/02/17 07:16:53;;;;;;;;;;;;;;;;;;5026399;28;19913;-80
2023/02/17 07:19:18;;;;;;;;;;;;;;;;;;5044924;28;20011;-79
2023/02/17 07:21:43;;;;;;;;;;;;;;;;;;5031018;28;19924;-79
2023/02/17 07:24:08;;;;;;;;;;;;;;;;;;5050351;28;19917;-80
2023/02/17 07:26:33;;;;;;;;;;;;;;;;;;5050161;28;20011;-78
2023/02/17 07:29:01;;;;;;;;;;;;;;;;;;5034117;28;19913;-78
2023/02/17 07:31:27;;;;;;;;;;;;;;;;;;5048953;28;20726;-78
2023/02/17 07:33:55;;;;;;;;;;;;;;;;;;5035058;28;19964;-79
2023/02/17 07:36:23;;;;;;;;;;;;;;;;;;5051125;28;19936;-79
2023/02/17 07:38:48;;;;;;;;;;;;;;;;;;5047446;28;20330;-80
2023/02/17 07:41:13;;;;;;;;;;;;;;;;;;5029853;28;19921;-80
2023/02/17 07:43:42;;;;;;;;;;;;;;;;;;5049973;28;19913;-79
2023/02/17 07:46:14;;;;;;;;;;;;;;;;;;5050938;28;19997;-81
2023/02/17 07:48:42;;;;;;;;;;;;;;;;;;5017910;28;19964;-78
2023/02/17 07:51:22;;;;;;;;;;;;;;;;;;5035123;28;19920;-82
2023/02/17 07:53:50;;;;;;;;;;;;;;;;;;5030213;28;20391;-79
2023/02/17 07:56:18;;;;;;;;;;;;;;;;;;5035037;28;19967;-80
2023/02/17 08:01:30;;;;;;;;;;;;;;;;;;5031798;28;20025;-83
2023/02/17 08:03:56;;;;;;;;;;;;;;;;;;5049606;28;20011;-81
2023/02/17 08:06:21;;;;;;;;;;;;;;;;;;5049888;28;19913;-78
2023/02/17 08:14:14;;;;;;;;;;;;;;;;;;5028181;28;19928;-80
2023/02/17 08:16:39;;;;;;;;;;;;;;;;;;5049862;28;19909;-76
2023/02/17 08:19:04;;;;;;;;;;;;;;;;;;5036639;28;19922;-77
2023/02/17 08:21:29;;;;;;;;;;;;;;;;;;5043861;28;19913;-77
2023/02/17 08:23:54;;;;;;;;;;;;;;;;;;5043316;28;19913;-77
2023/02/17 08:26:19;;;;;;;;;;;;;;;;;;5049433;28;19963;-77
2023/02/17 08:28:45;;;;;;;;;;;;;;;;;;5032323;28;20004;-76
2023/02/17 08:31:10;;;;;;;;;;;;;;;;;;5039150;28;20551;-77
2023/02/17 08:33:35;;;;;;;;;;;;;;;;;;5057833;28;19913;-78
2023/02/17 08:36:00;;;;;;;;;;;;;;;;;;5038758;28;19949;-76
2023/02/17 08:38:26;;;;;;;;;;;;;;;;;;5038605;28;19936;-76
2023/02/17 08:40:51;;;;;;;;;;;;;;;;;;5021957;28;19917;-76
2023/02/17 08:43:16;;;;;;;;;;;;;;;;;;5028642;28;20409;-77
2023/02/17 08:45:41;;;;;;;;;;;;;;;;;;5029104;28;19917;-77
2023/02/17 08:48:06;;;;;;;;;;;;;;;;;;5046580;28;20295;-78
2023/02/17 08:50:31;;;;;;;;;;;;;;;;;;5046518;28;19917;-78
2023/02/17 08:52:56;;;;;;;;;;;;;;;;;;5023053;28;19960;-78
2023/02/17 08:55:22;;;;;;;;;;;;;;;;;;5038232;28;19913;-78
2023/02/17 08:57:47;;;;;;;;;;;;;;;;;;5026512;28;20008;-78
2023/02/17 09:00:12;;;;;;;;;;;;;;;;;;5023938;28;19921;-78
2023/02/17 09:02:37;;;;;;;;;;;;;;;;;;5021550;28;20688;-78
2023/02/17 09:05:02;;;;;;;;;;;;;;;;;;5030802;28;19913;-78
2023/02/17 09:07:28;;;;;;;;;;;;;;;;;;5045805;28;19967;-78
2023/02/17 09:09:53;;;;;;;;;;;;;;;;;;5033550;28;20000;-78
2023/02/17 09:12:18;;;;;;;;;;;;;;;;;;5024820;28;19939;-77
2023/02/17 09:14:43;;;;;;;;;;;;;;;;;;5046325;28;20093;-77
2023/02/17 09:17:08;;;;;;;;;;;;;;;;;;5047180;28;20087;-76
2023/02/17 09:19:33;;;;;;;;;;;;;;;;;;5026850;28;19959;-77
2023/02/17 09:21:58;;;;;;;;;;;;;;;;;;5029248;28;19924;-78
2023/02/17 09:24:24;;;;;;;;;;;;;;;;;;5046031;28;19924;-79
2023/02/17 09:26:49;;;;;;;;;;;;;;;;;;5030464;28;20295;-78
2023/02/17 09:29:14;;;;;;;;;;;;;;;;;;5045833;28;19913;-78
2023/02/17 09:31:39;;;;;;;;;;;;;;;;;;5029210;28;19921;-79
2023/02/17 09:34:04;;;;;;;;;;;;;;;;;;5046761;28;19967;-78
2023/02/17 09:36:29;;;;;;;;;;;;;;;;;;5022520;28;20790;-78
2023/02/17 09:38:55;;;;;;;;;;;;;;;;;;5024467;28;19924;-79
2023/02/17 09:41:20;;;;;;;;;;;;;;;;;;5036192;28;20154;-79
2023/02/17 09:43:45;;;;;;;;;;;;;;;;;;5036100;28;19914;-77
2023/02/17 09:46:10;;;;;;;;;;;;;;;;;;5027355;28;19917;-78
2023/02/17 09:48:35;;;;;;;;;;;;;;;;;;5024938;28;21055;-78
2023/02/17 09:51:00;;;;;;;;;;;;;;;;;;5032635;28;20007;-78
2023/02/17 09:53:25;;;;;;;;;;;;;;;;;;5042751;28;19950;-79
2023/02/17 09:55:51;;;;;;;;;;;;;;;;;;5029797;28;19913;-77
2023/02/17 09:58:16;;;;;;;;;;;;;;;;;;5026316;28;19917;-79
2023/02/17 10:00:41;;;;;;;;;;;;;;;;;;5044678;28;19995;-79
2023/02/17 10:03:06;;;;;;;;;;;;;;;;;;5046515;28;19926;-76
2023/02/17 10:05:31;;;;;;;;;;;;;;;;;;5047964;28;19952;-77
2023/02/17 10:07:56;;;;;;;;;;;;;;;;;;5043430;28;19914;-78
2023/02/17 10:10:22;;;;;;;;;;;;;;;;;;5019225;28;20364;-77
2023/02/17 10:12:47;;;;;;;;;;;;;;;;;;5014184;28;19914;-78
2023/02/17 10:15:15;;;;;;;;;;;;;;;;;;5016340;28;20040;-77
2023/02/17 10:17:41;;;;;;;;;;;;;;;;;;5032569;28;19917;-77
2023/02/17 10:20:06;;;;;;;;;;;;;;;;;;5031104;28;19917;-79
2023/02/17 10:22:31;;;;;;;;;;;;;;;;;;5031295;28;19967;-77
2023/02/17 10:24:56;;;;;;;;;;;;;;;;;;5047557;28;19924;-76
2023/02/17 10:27:21;;;;;;;;;;;;;;;;;;5033299;28;20415;-77
2023/02/17 10:29:46;;;;;;;;;;;;;;;;;;5013267;28;20369;-76
2023/02/17 10:32:12;;;;;;;;;;;;;;;;;;5021378;28;20411;-78
2023/02/17 10:34:37;;;;;;;;;;;;;;;;;;5046158;28;19913;-79
2023/02/17 10:37:02;;;;;;;;;;;;;;;;;;5039979;28;19913;-79
2023/02/17 10:39:27;;;;;;;;;;;;;;;;;;5025322;28;20414;-77
2023/02/17 10:41:52;;;;;;;;;;;;;;;;;;5039244;28;20376;-77
2023/02/17 10:44:17;;;;;;;;;;;;;;;;;;5021757;28;19917;-77
2023/02/17 10:46:42;;;;;;;;;;;;;;;;;;5021076;28;20039;-77
2023/02/17 10:49:08;;;;;;;;;;;;;;;;;;5024358;28;19936;-76
2023/02/17 10:51:33;;;;;;;;;;;;;;;;;;5036701;28;19921;-77
2023/02/17 10:53:58;;;;;;;;;;;;;;;;;;5023125;28;19925;-77
2023/02/17 10:56:23;;;;;;;;;;;;;;;;;;5026991;28;19921;-77
2023/02/17 10:58:48;;;;;;;;;;;;;;;;;;5025472;28;19917;-76
2023/02/17 11:01:13;;;;;;;;;;;;;;;;;;5041180;28;20313;-77
2023/02/17 11:03:39;;;;;;;;;;;;;;;;;;5032603;28;20364;-77
2023/02/17 11:06:05;;;;;;;;;;;;;;;;;;5026021;28;19912;-76
2023/02/17 11:08:30;;;;;;;;;;;;;;;;;;5026280;28;20004;-75
2023/02/17 11:10:55;;;;;;;;;;;;;;;;;;5024494;28;19928;-78
2023/02/17 11:13:20;;;;;;;;;;;;;;;;;;5027148;28;19979;-76
2023/02/17 11:15:46;;;;;;;;;;;;;;;;;;5027372;28;19945;-78
2023/02/17 11:18:11;;;;;;;;;;;;;;;;;;5046566;28;19925;-77
2023/02/17 11:20:36;;;;;;;;;;;;;;;;;;5025573;28;19917;-76
2023/02/17 11:23:01;;;;;;;;;;;;;;;;;;5046571;28;19955;-76
2023/02/17 11:25:26;;;;;;;;;;;;;;;;;;5031602;28;19917;-76
2023/02/17 11:27:51;;;;;;;;;;;;;;;;;;5023779;28;19925;-76
2023/02/17 11:30:17;;;;;;;;;;;;;;;;;;5040401;28;20390;-77
2023/02/17 11:32:42;;;;;;;;;;;;;;;;;;5050125;28;19939;-77
2023/02/17 11:35:08;;;;;;;;;;;;;;;;;;5046754;28;19921;-78
2023/02/17 11:37:33;;;;;;;;;;;;;;;;;;5036742;28;20360;-78
2023/02/17 11:39:59;;;;;;;;;;;;;;;;;;5031913;28;19913;-77
2023/02/17 11:42:24;;;;;;;;;;;;;;;;;;5048758;28;19922;-77
2023/02/17 11:44:49;;;;;;;;;;;;;;;;;;5037103;28;19995;-78
2023/02/17 11:47:14;;;;;;;;;;;;;;;;;;5035841;28;19914;-79
2023/02/17 11:49:39;;;;;;;;;;;;;;;;;;5035257;28;19909;-77
2023/02/17 11:52:04;;;;;;;;;;;;;;;;;;5035404;28;19917;-78
2023/02/17 11:54:30;;;;;;;;;;;;;;;;;;5051022;28;19951;-78
2023/02/17 11:56:55;;;;;;;;;;;;;;;;;;5035822;28;19959;-78
2023/02/17 11:59:20;;;;;;;;;;;;;;;;;;5049739;28;19917;-78
2023/02/17 12:01:45;;;;;;;;;;;;;;;;;;5043205;28;19940;-78
2023/02/17 12:04:10;;;;;;;;;;;;;;;;;;5040223;28;19909;-77
2023/02/17 12:06:35;;;;;;;;;;;;;;;;;;5032834;28;19913;-78
2023/02/17 12:09:02;;;;;;;;;;;;;;;;;;5045201;28;20261;-76
2023/02/17 12:11:28;;;;;;;;;;;;;;;;;;5030120;28;19913;-76
2023/02/17 12:13:53;;;;;;;;;;;;;;;;;;5033839;28;19919;-77
2023/02/17 12:16:18;;;;;;;;;;;;;;;;;;5046689;28;19953;-76
2023/02/17 12:18:43;;;;;;;;;;;;;;;;;;5044176;28;19913;-76
2023/02/17 12:21:09;;;;;;;;;;;;;;;;;;5029578;28;19914;-77
2023/02/17 12:23:34;;;;;;;;;;;;;;;;;;5046940;28;20003;-77
2023/02/17 12:25:59;;;;;;;;;;;;;;;;;;5034474;28;19913;-76
2023/02/17 12:28:24;;;;;;;;;;;;;;;;;;5044877;28;19952;-77
2023/02/17 12:30:49;;;;;;;;;;;;;;;;;;5028243;28;19918;-79
2023/02/17 12:33:14;;;;;;;;;;;;;;;;;;5044575;28;20007;-78
2023/02/17 12:35:39;;;;;;;;;;;;;;;;;;5034703;28;19924;-79
2023/02/17 12:38:05;;;;;;;;;;;;;;;;;;5032291;28;20419;-78
2023/02/17 12:40:30;;;;;;;;;;;;;;;;;;5047207;28;20008;-79
2023/02/17 12:42:56;;;;;;;;;;;;;;;;;;5030944;28;19948;-77
2023/02/17 12:45:21;;;;;;;;;;;;;;;;;;5044275;28;19920;-77
2023/02/17 12:47:46;;;;;;;;;;;;;;;;;;5048183;28;19975;-77
2023/02/17 12:50:11;;;;;;;;;;;;;;;;;;5048336;28;19913;-77
2023/02/17 12:52:36;;;;;;;;;;;;;;;;;;5046765;28;19919;-77
2023/02/17 12:55:01;;;;;;;;;;;;;;;;;;5032667;28;19960;-77
2023/02/17 12:57:26;;;;;;;;;;;;;;;;;;5048163;28;20024;-78
2023/02/17 12:59:52;;;;;;;;;;;;;;;;;;5027428;28;19913;-83
2023/02/17 13:02:17;;;;;;;;;;;;;;;;;;5044472;28;20007;-78
2023/02/17 13:04:43;;;;;;;;;;;;;;;;;;5032794;28;19960;-78
2023/02/17 13:07:08;;;;;;;;;;;;;;;;;;5047252;28;19972;-78
2023/02/17 13:09:33;;;;;;;;;;;;;;;;;;5027922;28;19917;-76
2023/02/17 13:11:58;;;;;;;;;;;;;;;;;;5036116;28;20179;-77
2023/02/17 13:14:23;;;;;;;;;;;;;;;;;;5031101;28;19913;-77
2023/02/17 13:16:48;;;;;;;;;;;;;;;;;;5030127;28;19913;-78
2023/02/17 13:19:14;;;;;;;;;;;;;;;;;;5047471;28;19913;-77
2023/02/17 13:21:39;;;;;;;;;;;;;;;;;;5032175;28;19974;-77
2023/02/17 13:24:06;;;;;;;;;;;;;;;;;;5043603;28;19921;-80
2023/02/17 13:26:31;;;;;;;;;;;;;;;;;;5045084;28;19913;-80
2023/02/17 13:28:56;;;;;;;;;;;;;;;;;;5046599;28;19928;-78
2023/02/17 13:31:21;;;;;;;;;;;;;;;;;;5043338;28;19921;-80
2023/02/17 13:33:46;;;;;;;;;;;;;;;;;;5027569;28;19920;-80
2023/02/17 13:36:12;;;;;;;;;;;;;;;;;;5031302;28;19917;-77
2023/02/17 13:38:37;;;;;;;;;;;;;;;;;;5046602;28;19913;-78
2023/02/17 13:41:03;;;;;;;;;;;;;;;;;;5043832;28;19913;-80
2023/02/17 13:43:29;;;;;;;;;;;;;;;;;;5046613;28;19936;-78
2023/02/17 13:45:54;;;;;;;;;;;;;;;;;;5027033;28;19932;-76
2023/02/17 13:48:19;;;;;;;;;;;;;;;;;;5025428;28;19918;-77
2023/02/17 13:50:45;;;;;;;;;;;;;;;;;;5027722;28;19940;-76
2023/02/17 13:53:10;;;;;;;;;;;;;;;;;;5037620;28;19913;-77
2023/02/17 13:55:35;;;;;;;;;;;;;;;;;;5027393;28;19967;-75
2023/02/17 13:58:00;;;;;;;;;;;;;;;;;;5028421;28;19920;-78
2023/02/17 14:00:25;;;;;;;;;;;;;;;;;;5032335;28;19913;-78
2023/02/17 14:02:50;;;;;;;;;;;;;;;;;;5044947;28;20011;-77
2023/02/17 14:05:16;;;;;;;;;;;;;;;;;;5026777;28;20288;-78
2023/02/17 14:07:41;;;;;;;;;;;;;;;;;;5027415;28;19914;-76
2023/02/17 14:10:06;;;;;;;;;;;;;;;;;;5030996;28;19909;-77
2023/02/17 14:12:31;;;;;;;;;;;;;;;;;;5042903;28;20388;-75
2023/02/17 14:14:56;;;;;;;;;;;;;;;;;;5042180;28;19920;-78
2023/02/17 14:17:21;;;;;;;;;;;;;;;;;;5030523;28;19913;-77
2023/02/17 14:19:46;;;;;;;;;;;;;;;;;;5046253;28;19959;-76
2023/02/17 14:22:12;;;;;;;;;;;;;;;;;;5046151;28;19925;-76
2023/02/17 14:24:37;;;;;;;;;;;;;;;;;;5046778;28;19917;-76
2023/02/17 14:27:02;;;;;;;;;;;;;;;;;;5031029;28;19921;-77
2023/02/17 14:29:27;;;;;;;;;;;;;;;;;;5045356;28;19975;-78
2023/02/17 14:31:52;;;;;;;;;;;;;;;;;;5045418;28;19921;-77
2023/02/17 14:34:18;;;;;;;;;;;;;;;;;;5046427;28;19909;-78
2023/02/17 14:36:43;;;;;;;;;;;;;;;;;;5038460;28;19921;-79
2023/02/17 14:39:08;;;;;;;;;;;;;;;;;;5043113;28;19913;-77
2023/02/17 14:41:33;;;;;;;;;;;;;;;;;;5028091;28;20408;-79
2023/02/17 14:43:59;;;;;;;;;;;;;;;;;;5031089;28;20369;-75
2023/02/17 14:46:24;;;;;;;;;;;;;;;;;;5017978;28;19916;-77
2023/02/17 14:48:49;;;;;;;;;;;;;;;;;;5029387;28;19917;-77
2023/02/17 14:51:14;;;;;;;;;;;;;;;;;;5030220;28;19913;-77
2023/02/17 14:53:40;;;;;;;;;;;;;;;;;;5030255;28;19952;-77
2023/02/17 14:56:05;;;;;;;;;;;;;;;;;;5030783;28;20015;-78
2023/02/17 14:58:30;;;;;;;;;;;;;;;;;;5035123;28;19956;-77
2023/02/17 15:00:55;;;;;;;;;;;;;;;;;;5027440;28;19914;-77
2023/02/17 15:03:21;;;;;;;;;;;;;;;;;;5027183;28;20283;-78
2023/02/17 15:05:46;;;;;;;;;;;;;;;;;;5046441;28;19917;-78
2023/02/17 15:08:11;;;;;;;;;;;;;;;;;;5045322;28;19910;-78
2023/02/17 15:10:38;;;;;;;;;;;;;;;;;;5028266;28;20454;-77
2023/02/17 15:13:03;;;;;;;;;;;;;;;;;;5027513;28;19959;-78
2023/02/17 15:15:28;;;;;;;;;;;;;;;;;;5046407;28;20331;-78
2023/02/17 15:17:54;;;;;;;;;;;;;;;;;;5045944;28;20264;-77
2023/02/17 15:20:19;;;;;;;;;;;;;;;;;;5030724;28;19914;-77
2023/02/17 15:22:44;;;;;;;;;;;;;;;;;;5029682;28;19965;-77
2023/02/17 15:25:09;;;;;;;;;;;;;;;;;;5030778;28;19917;-77
2023/02/17 15:27:34;;;;;;;;;;;;;;;;;;5045389;28;19917;-77
2023/02/17 15:30:00;;;;;;;;;;;;;;;;;;5046050;28;19936;-77
2023/02/17 15:32:25;;;;;;;;;;;;;;;;;;5029337;28;20344;-77
2023/02/17 15:34:50;;;;;;;;;;;;;;;;;;5030246;28;19913;-78
2023/02/17 15:37:15;;;;;;;;;;;;;;;;;;5045861;28;19913;-79
2023/02/17 15:39:40;;;;;;;;;;;;;;;;;;5045804;28;20179;-79
2023/02/17 15:42:05;;;;;;;;;;;;;;;;;;5028696;28;19976;-78
2023/02/17 15:44:30;;;;;;;;;;;;;;;;;;5049355;28;20303;-78
2023/02/17 15:46:55;;;;;;;;;;;;;;;;;;5033725;28;19913;-78
2023/02/17 15:49:21;;;;;;;;;;;;;;;;;;5033514;28;19920;-77
2023/02/17 15:51:46;;;;;;;;;;;;;;;;;;5034045;28;19913;-78
2023/02/17 15:54:12;;;;;;;;;;;;;;;;;;5046963;28;19963;-77
2023/02/17 15:56:37;;;;;;;;;;;;;;;;;;5034715;28;19921;-78
2023/02/17 15:59:02;;;;;;;;;;;;;;;;;;5036746;28;19964;-78
2023/02/17 16:01:28;;;;;;;;;;;;;;;;;;5051603;28;19917;-77
2023/02/17 16:03:53;;;;;;;;;;;;;;;;;;5031724;28;20702;-77
2023/02/17 16:06:18;;;;;;;;;;;;;;;;;;5034492;28;19959;-76
2023/02/17 16:08:43;;;;;;;;;;;;;;;;;;5033435;28;20355;-76
2023/02/17 16:11:08;;;;;;;;;;;;;;;;;;5047822;28;20402;-78
2023/02/17 16:13:33;;;;;;;;;;;;;;;;;;5032187;28;19917;-78
2023/02/17 16:15:58;;;;;;;;;;;;;;;;;;5032691;28;19963;-78
2023/02/17 16:18:24;;;;;;;;;;;;;;;;;;5033457;28;19913;-78
2023/02/17 16:20:49;;;;;;;;;;;;;;;;;;5041408;28;20284;-77
2023/02/17 16:23:14;;;;;;;;;;;;;;;;;;5032129;28;19921;-78
2023/02/17 16:25:39;;;;;;;;;;;;;;;;;;5046323;28;19921;-77
2023/02/17 16:28:04;;;;;;;;;;;;;;;;;;5022648;28;20047;-76
2023/02/17 16:30:29;;;;;;;;;;;;;;;;;;5018436;28;20226;-78
2023/02/17 16:32:55;;;;;;;;;;;;;;;;;;5032299;28;20131;-78
2023/02/17 16:35:20;;;;;;;;;;;;;;;;;;5025524;28;19913;-78
2023/02/17 16:37:45;;;;;;;;;;;;;;;;;;5047085;28;20004;-78
2023/02/17 16:40:10;;;;;;;;;;;;;;;;;;5031785;28;19917;-79
2023/02/17 16:42:36;;;;;;;;;;;;;;;;;;5042679;28;19925;-78
2023/02/17 16:45:01;;;;;;;;;;;;;;;;;;5028614;28;19913;-78
2023/02/17 16:47:26;;;;;;;;;;;;;;;;;;5032567;28;20379;-78